Time;durP1;ratioP1;P1;durP2;ratioP2;P2;SDS_P1;SDS_P2;PMS_P1;PMS_P2;Temp;Humidity;BMP_temperature;BMP_pressure;BME280_temperature;BME280_humidity;BME280_pressure;Samples;Min_cycle;Max_cycle;Signal;HPM_P1;HPM_P2
2021/06/10 00:01:00;;;;;;;23.20;20.98;;;;;;;;;;2055967;28;20210;-59
2021/06/10 00:02:00;;;;;;;21.98;19.77;;;;;;;;;;2054781;28;20189;-60
2021/06/10 00:03:00;;;;;;;21.85;19.90;;;;;;;;;;2058465;28;20202;-60
2021/06/10 00:04:01;;;;;;;21.92;19.67;;;;;;;;;;2063599;28;20219;-62
2021/06/10 00:05:01;;;;;;;22.17;19.70;;;;;;;;;;2056941;28;20174;-61
2021/06/10 00:06:01;;;;;;;22.77;20.48;;;;;;;;;;2056092;28;20182;-62
2021/06/10 00:07:02;;;;;;;23.02;20.83;;;;;;;;;;2056768;28;20185;-62
2021/06/10 00:08:02;;;;;;;21.83;19.75;;;;;;;;;;2054259;28;20185;-58
2021/06/10 00:09:03;;;;;;;21.75;19.63;;;;;;;;;;2052586;28;20186;-60
2021/06/10 00:10:08;;;;;;;23.00;20.70;;;;;;;;;;2056152;28;20606;-59
2021/06/10 00:11:08;;;;;;;21.73;19.75;;;;;;;;;;2050823;28;20206;-59
2021/06/10 00:12:09;;;;;;;22.77;20.58;;;;;;;;;;2056409;28;20602;-60
2021/06/10 00:13:10;;;;;;;21.27;19.05;;;;;;;;;;2055533;28;20169;-61
2021/06/10 00:14:12;;;;;;;21.95;19.80;;;;;;;;;;2056478;28;20494;-61
2021/06/10 00:15:15;;;;;;;22.60;20.50;;;;;;;;;;2056938;28;20184;-61
2021/06/10 00:16:16;;;;;;;21.58;19.48;;;;;;;;;;2057103;28;20181;-63
2021/06/10 00:17:17;;;;;;;22.23;19.90;;;;;;;;;;2057035;28;20253;-58
2021/06/10 00:18:17;;;;;;;20.48;18.38;;;;;;;;;;2056900;28;20300;-59
2021/06/10 00:19:17;;;;;;;22.95;20.65;;;;;;;;;;2049653;28;20183;-54
2021/06/10 00:20:19;;;;;;;21.38;19.23;;;;;;;;;;2049298;28;20210;-61
2021/06/10 00:21:19;;;;;;;20.20;18.27;;;;;;;;;;2048588;29;20210;-60
2021/06/10 00:22:20;;;;;;;20.08;18.27;;;;;;;;;;2049329;28;20171;-60
2021/06/10 00:23:20;;;;;;;20.95;18.95;;;;;;;;;;2056430;28;20744;-62
2021/06/10 00:24:20;;;;;;;20.80;18.73;;;;;;;;;;2057250;28;20185;-62
2021/06/10 00:25:21;;;;;;;20.67;18.77;;;;;;;;;;2054519;28;20193;-62
2021/06/10 00:26:22;;;;;;;21.55;19.63;;;;;;;;;;2049219;28;20167;-61
2021/06/10 00:27:22;;;;;;;23.25;21.05;;;;;;;;;;2048306;29;20602;-62
2021/06/10 00:28:22;;;;;;;21.38;19.35;;;;;;;;;;2051020;28;20194;-59
2021/06/10 00:29:23;;;;;;;20.80;18.65;;;;;;;;;;2064406;28;20637;-62
2021/06/10 00:30:23;;;;;;;22.80;20.45;;;;;;;;;;2064594;28;20260;-61
2021/06/10 00:31:24;;;;;;;24.42;21.90;;;;;;;;;;2056731;28;20179;-60
2021/06/10 00:32:24;;;;;;;22.17;20.15;;;;;;;;;;2064347;28;20177;-61
2021/06/10 00:33:24;;;;;;;24.75;22.30;;;;;;;;;;2056020;28;20663;-61
2021/06/10 00:34:24;;;;;;;23.08;20.90;;;;;;;;;;2056496;28;20220;-61
2021/06/10 00:35:25;;;;;;;21.75;19.60;;;;;;;;;;2053197;28;20647;-61
2021/06/10 00:36:25;;;;;;;22.10;19.75;;;;;;;;;;2060629;28;20220;-62
2021/06/10 00:37:26;;;;;;;22.00;19.92;;;;;;;;;;2057138;28;20220;-57
2021/06/10 00:38:27;;;;;;;21.25;19.15;;;;;;;;;;2056940;28;20244;-60
2021/06/10 00:39:27;;;;;;;23.10;19.50;;;;;;;;;;2057187;28;20601;-62
2021/06/10 00:40:28;;;;;;;22.58;20.38;;;;;;;;;;2054256;28;20254;-61
2021/06/10 00:41:30;;;;;;;21.83;19.73;;;;;;;;;;2055961;28;20174;-60
2021/06/10 00:42:31;;;;;;;21.38;19.40;;;;;;;;;;2053473;28;20175;-60
2021/06/10 00:43:31;;;;;;;22.33;19.98;;;;;;;;;;2055439;28;20221;-60
2021/06/10 00:44:31;;;;;;;22.02;19.92;;;;;;;;;;2055237;28;20182;-60
2021/06/10 00:45:32;;;;;;;22.20;19.92;;;;;;;;;;2055321;28;20179;-62
2021/06/10 00:46:33;;;;;;;22.85;20.02;;;;;;;;;;2041555;29;20187;-60
2021/06/10 00:47:33;;;;;;;22.00;19.80;;;;;;;;;;2054482;28;20174;-62
2021/06/10 00:48:34;;;;;;;20.73;18.88;;;;;;;;;;2056357;28;20324;-59
2021/06/10 00:49:35;;;;;;;23.23;20.95;;;;;;;;;;2056255;28;20174;-59
2021/06/10 00:50:38;;;;;;;22.83;20.52;;;;;;;;;;2056061;28;20271;-60
2021/06/10 00:51:39;;;;;;;21.83;19.15;;;;;;;;;;2054565;28;20684;-60
2021/06/10 00:52:39;;;;;;;21.80;19.80;;;;;;;;;;2055524;28;20182;-61
2021/06/10 00:53:39;;;;;;;21.33;19.23;;;;;;;;;;2054613;28;20715;-62
2021/06/10 00:54:40;;;;;;;22.15;19.98;;;;;;;;;;2057367;28;20182;-62
2021/06/10 00:55:40;;;;;;;22.50;20.20;;;;;;;;;;2057857;28;20178;-63
2021/06/10 00:56:40;;;;;;;20.83;18.77;;;;;;;;;;2056482;28;20394;-59
2021/06/10 00:57:41;;;;;;;22.55;20.30;;;;;;;;;;2057320;28;20185;-59
2021/06/10 00:58:41;;;;;;;22.80;20.50;;;;;;;;;;2056648;28;20229;-59
2021/06/10 00:59:42;;;;;;;23.45;21.17;;;;;;;;;;2058147;28;20175;-59
2021/06/10 01:00:42;;;;;;;24.83;22.23;;;;;;;;;;2056339;28;20221;-58
2021/06/10 01:01:42;;;;;;;23.20;20.92;;;;;;;;;;2057472;28;20193;-60
2021/06/10 01:02:43;;;;;;;23.58;21.25;;;;;;;;;;2055783;28;20193;-62
2021/06/10 01:03:43;;;;;;;24.15;21.67;;;;;;;;;;2057722;28;20182;-60
2021/06/10 01:04:43;;;;;;;22.90;20.67;;;;;;;;;;2057034;28;20190;-59
2021/06/10 01:05:46;;;;;;;24.08;21.58;;;;;;;;;;2057255;28;20205;-57
2021/06/10 01:06:52;;;;;;;24.83;22.60;;;;;;;;;;2053270;28;20248;-61
2021/06/10 01:07:52;;;;;;;25.08;22.58;;;;;;;;;;2057750;28;20528;-60
2021/06/10 01:08:58;;;;;;;24.38;21.98;;;;;;;;;;2057372;28;20178;-59
2021/06/10 01:10:05;;;;;;;23.25;20.77;;;;;;;;;;2058241;28;20190;-57
2021/06/10 01:11:15;;;;;;;23.83;21.70;;;;;;;;;;2052053;28;20224;-57
2021/06/10 01:12:34;;;;;;;23.88;21.50;;;;;;;;;;2055435;28;20499;-59
2021/06/10 01:13:49;;;;;;;23.48;21.17;;;;;;;;;;2056971;28;20247;-58
2021/06/10 01:14:54;;;;;;;23.10;20.83;;;;;;;;;;2051143;28;20174;-59
2021/06/10 01:15:56;;;;;;;22.48;20.35;;;;;;;;;;2057805;28;20179;-58
2021/06/10 01:16:58;;;;;;;23.27;21.17;;;;;;;;;;2057246;28;20519;-59
2021/06/10 01:17:58;;;;;;;22.63;20.45;;;;;;;;;;2057798;28;20700;-60
2021/06/10 01:19:01;;;;;;;23.98;21.63;;;;;;;;;;2053583;28;20218;-58
2021/06/10 01:20:01;;;;;;;23.20;21.10;;;;;;;;;;2058193;28;20177;-57
2021/06/10 01:21:02;;;;;;;23.95;21.63;;;;;;;;;;2057416;28;20288;-58
2021/06/10 01:22:05;;;;;;;24.75;22.30;;;;;;;;;;2049044;28;20171;-59
2021/06/10 01:23:43;;;;;;;23.27;21.15;;;;;;;;;;2044600;28;20689;-58
2021/06/10 01:24:49;;;;;;;22.40;20.17;;;;;;;;;;2027904;29;20185;-59
2021/06/10 01:26:01;;;;;;;23.65;21.35;;;;;;;;;;2016537;29;20635;-59
2021/06/10 01:27:18;;;;;;;22.15;20.15;;;;;;;;;;2024774;29;20221;-54
2021/06/10 01:28:20;;;;;;;23.50;21.17;;;;;;;;;;2024993;29;20176;-58
2021/06/10 01:29:21;;;;;;;23.70;21.02;;;;;;;;;;2025114;29;20191;-60
2021/06/10 01:30:23;;;;;;;23.40;21.10;;;;;;;;;;2040141;28;20190;-57
2021/06/10 01:31:24;;;;;;;25.70;22.02;;;;;;;;;;2048345;29;20189;-61
2021/06/10 01:32:25;;;;;;;24.27;22.08;;;;;;;;;;2049318;29;20177;-58
2021/06/10 01:33:45;;;;;;;22.75;20.60;;;;;;;;;;2050963;28;20677;-62
2021/06/10 01:34:46;;;;;;;23.17;20.88;;;;;;;;;;2049244;28;20198;-61
2021/06/10 01:35:49;;;;;;;23.67;21.50;;;;;;;;;;2056186;28;20230;-58
2021/06/10 01:36:51;;;;;;;23.92;21.42;;;;;;;;;;2050322;28;20186;-59
2021/06/10 01:37:53;;;;;;;24.52;22.13;;;;;;;;;;2050225;28;20214;-61
2021/06/10 01:38:55;;;;;;;25.42;22.92;;;;;;;;;;2057741;28;20169;-60
2021/06/10 01:39:57;;;;;;;24.50;22.00;;;;;;;;;;2058266;28;20170;-60
2021/06/10 01:40:58;;;;;;;25.38;22.98;;;;;;;;;;2057254;28;20206;-61
2021/06/10 01:41:59;;;;;;;24.77;22.27;;;;;;;;;;2057235;28;20170;-61
2021/06/10 01:43:00;;;;;;;24.70;22.38;;;;;;;;;;2056703;28;20190;-61
2021/06/10 01:44:01;;;;;;;25.40;23.00;;;;;;;;;;2058068;28;20170;-60
2021/06/10 01:45:02;;;;;;;26.13;23.73;;;;;;;;;;2057351;28;20170;-58
2021/06/10 01:46:02;;;;;;;27.83;25.17;;;;;;;;;;2057951;28;20189;-60
2021/06/10 01:47:03;;;;;;;26.20;23.63;;;;;;;;;;2055982;28;20186;-58
2021/06/10 01:48:03;;;;;;;25.60;23.23;;;;;;;;;;2057935;28;20272;-61
2021/06/10 01:49:05;;;;;;;25.77;23.27;;;;;;;;;;2055321;28;20673;-61
2021/06/10 01:50:06;;;;;;;26.05;23.45;;;;;;;;;;2057272;28;20193;-58
2021/06/10 01:51:07;;;;;;;26.45;23.85;;;;;;;;;;2054531;28;20202;-58
2021/06/10 01:52:07;;;;;;;26.58;23.88;;;;;;;;;;2056619;28;20194;-58
2021/06/10 01:53:14;;;;;;;26.90;24.27;;;;;;;;;;2053835;28;20233;-57
2021/06/10 01:54:15;;;;;;;27.00;24.13;;;;;;;;;;2054205;28;20187;-57
2021/06/10 01:55:16;;;;;;;25.95;23.38;;;;;;;;;;2053937;28;20174;-57
2021/06/10 01:56:17;;;;;;;27.10;24.13;;;;;;;;;;2057371;28;20562;-56
2021/06/10 01:57:18;;;;;;;26.27;23.83;;;;;;;;;;2054476;28;20265;-57
2021/06/10 01:58:18;;;;;;;26.15;23.65;;;;;;;;;;2057099;28;20710;-54
2021/06/10 01:59:22;;;;;;;26.05;23.55;;;;;;;;;;2053173;28;20202;-55
2021/06/10 02:00:23;;;;;;;27.27;24.55;;;;;;;;;;2051027;28;20567;-55
2021/06/10 02:01:27;;;;;;;27.67;24.83;;;;;;;;;;2052442;28;20171;-59
2021/06/10 02:02:27;;;;;;;25.75;23.30;;;;;;;;;;2054970;28;20163;-59
2021/06/10 02:03:28;;;;;;;25.40;23.10;;;;;;;;;;2056965;28;20654;-59
2021/06/10 02:04:28;;;;;;;25.83;22.92;;;;;;;;;;2057443;28;20257;-59
2021/06/10 02:05:29;;;;;;;25.17;22.88;;;;;;;;;;2056235;28;20701;-59
2021/06/10 02:06:31;;;;;;;25.42;23.13;;;;;;;;;;2056922;28;20573;-59
2021/06/10 02:07:32;;;;;;;26.42;23.90;;;;;;;;;;2056696;28;20222;-56
2021/06/10 02:08:32;;;;;;;26.65;24.17;;;;;;;;;;2056614;28;20553;-58
2021/06/10 02:09:33;;;;;;;26.25;23.75;;;;;;;;;;2057880;28;20174;-61
2021/06/10 02:12:01;;;;;;;25.90;23.40;;;;;;;;;;2037028;29;20290;-62
2021/06/10 02:13:01;;;;;;;26.33;23.75;;;;;;;;;;2039844;29;20195;-62
2021/06/10 02:14:02;;;;;;;26.02;23.70;;;;;;;;;;2041485;29;20188;-62
2021/06/10 02:15:03;;;;;;;25.67;23.25;;;;;;;;;;2041557;29;20167;-62
2021/06/10 02:16:05;;;;;;;27.40;24.48;;;;;;;;;;2039720;29;20191;-62
2021/06/10 02:17:05;;;;;;;27.63;24.90;;;;;;;;;;2042184;29;20179;-62
2021/06/10 02:18:06;;;;;;;26.98;24.58;;;;;;;;;;2042106;29;20204;-62
2021/06/10 02:19:06;;;;;;;27.95;25.15;;;;;;;;;;2041569;29;20186;-63
2021/06/10 02:20:07;;;;;;;28.13;25.40;;;;;;;;;;2037977;29;20730;-62
2021/06/10 02:21:10;;;;;;;27.50;24.65;;;;;;;;;;2041245;29;20219;-64
2021/06/10 02:22:10;;;;;;;27.63;25.02;;;;;;;;;;2041603;29;20163;-63
2021/06/10 02:23:10;;;;;;;27.42;24.65;;;;;;;;;;2045412;29;20708;-63
2021/06/10 02:24:11;;;;;;;28.58;25.75;;;;;;;;;;2041774;29;20194;-63
2021/06/10 02:25:12;;;;;;;29.02;26.05;;;;;;;;;;2034271;29;20649;-63
2021/06/10 02:26:13;;;;;;;28.88;25.95;;;;;;;;;;2034573;29;20179;-63
2021/06/10 02:27:13;;;;;;;29.52;26.60;;;;;;;;;;2033736;29;20211;-64
2021/06/10 02:28:13;;;;;;;29.73;26.73;;;;;;;;;;2037341;29;20230;-63
2021/06/10 02:29:14;;;;;;;28.90;26.00;;;;;;;;;;2041800;29;20182;-63
2021/06/10 02:30:15;;;;;;;29.50;26.75;;;;;;;;;;2041883;29;20180;-63
2021/06/10 02:31:15;;;;;;;28.83;26.10;;;;;;;;;;2040356;29;20306;-63
2021/06/10 02:32:15;;;;;;;30.00;27.02;;;;;;;;;;2045783;29;20235;-64
2021/06/10 02:33:16;;;;;;;31.77;28.67;;;;;;;;;;2043246;28;20316;-63
2021/06/10 02:34:16;;;;;;;31.60;28.50;;;;;;;;;;2045209;29;20163;-63
2021/06/10 02:35:17;;;;;;;30.75;27.85;;;;;;;;;;2045137;29;20696;-64
2021/06/10 02:36:18;;;;;;;31.45;28.27;;;;;;;;;;2045438;29;20167;-63
2021/06/10 02:37:19;;;;;;;31.20;28.20;;;;;;;;;;2046860;29;20170;-63
2021/06/10 02:38:20;;;;;;;31.70;28.48;;;;;;;;;;2043884;29;20206;-63
2021/06/10 02:39:20;;;;;;;32.88;29.67;;;;;;;;;;2041588;29;20499;-63
2021/06/10 02:40:24;;;;;;;32.30;29.10;;;;;;;;;;2042880;29;20215;-63
2021/06/10 02:41:26;;;;;;;34.10;30.70;;;;;;;;;;2045748;29;20225;-63
2021/06/10 02:42:26;;;;;;;35.75;32.10;;;;;;;;;;2042951;29;20175;-62
2021/06/10 02:43:33;;;;;;;32.42;29.40;;;;;;;;;;2044123;29;20215;-63
2021/06/10 02:44:33;;;;;;;33.33;29.95;;;;;;;;;;2045042;29;20202;-64
2021/06/10 02:45:34;;;;;;;32.42;29.27;;;;;;;;;;2037505;29;20185;-63
2021/06/10 02:46:35;;;;;;;33.22;29.95;;;;;;;;;;2037863;29;20684;-63
2021/06/10 02:47:36;;;;;;;31.98;28.88;;;;;;;;;;2048789;28;20198;-63
2021/06/10 02:48:37;;;;;;;30.88;28.00;;;;;;;;;;2049333;28;20208;-63
2021/06/10 02:49:38;;;;;;;33.03;29.75;;;;;;;;;;2044751;29;20543;-63
2021/06/10 02:50:39;;;;;;;31.88;28.83;;;;;;;;;;2040415;29;20562;-65
2021/06/10 02:51:40;;;;;;;32.15;28.67;;;;;;;;;;2028558;29;20270;-63
2021/06/10 02:52:41;;;;;;;32.63;29.42;;;;;;;;;;2035847;29;20232;-63
2021/06/10 02:53:44;;;;;;;33.60;30.30;;;;;;;;;;2041533;29;20184;-64
2021/06/10 02:54:46;;;;;;;33.30;29.88;;;;;;;;;;2034965;29;20328;-63
2021/06/10 02:55:48;;;;;;;32.88;29.23;;;;;;;;;;2033959;29;20745;-64
2021/06/10 02:56:49;;;;;;;33.05;29.70;;;;;;;;;;2034374;29;20180;-62
2021/06/10 02:57:53;;;;;;;33.85;30.55;;;;;;;;;;2041178;29;20190;-62
2021/06/10 02:58:55;;;;;;;32.08;29.00;;;;;;;;;;2034767;29;20176;-63
2021/06/10 02:59:55;;;;;;;30.95;27.85;;;;;;;;;;2034392;29;20256;-63
2021/06/10 03:00:56;;;;;;;31.20;28.20;;;;;;;;;;2035070;29;20199;-63
2021/06/10 03:01:56;;;;;;;31.25;28.10;;;;;;;;;;2041235;29;20183;-63
2021/06/10 03:02:57;;;;;;;30.63;27.63;;;;;;;;;;2039979;29;20174;-63
2021/06/10 03:03:57;;;;;;;31.45;28.15;;;;;;;;;;2033969;29;20196;-63
2021/06/10 03:04:58;;;;;;;30.25;27.02;;;;;;;;;;2033731;29;20181;-63
2021/06/10 03:05:59;;;;;;;31.00;28.05;;;;;;;;;;2032326;29;20243;-63
2021/06/10 03:07:00;;;;;;;33.53;30.08;;;;;;;;;;2033171;29;20176;-63
2021/06/10 03:08:01;;;;;;;31.35;28.25;;;;;;;;;;2039315;29;20176;-64
2021/06/10 03:09:01;;;;;;;34.72;31.13;;;;;;;;;;2040779;29;20182;-62
2021/06/10 03:10:02;;;;;;;34.80;31.23;;;;;;;;;;2043089;29;20226;-63
2021/06/10 03:11:05;;;;;;;35.05;31.60;;;;;;;;;;2034475;29;20220;-62
2021/06/10 03:12:06;;;;;;;35.58;31.77;;;;;;;;;;2040384;29;20223;-63
2021/06/10 03:13:07;;;;;;;35.83;32.33;;;;;;;;;;2039093;29;20176;-64
2021/06/10 03:14:08;;;;;;;35.10;31.60;;;;;;;;;;2038210;29;20182;-62
2021/06/10 03:15:09;;;;;;;35.13;31.63;;;;;;;;;;2043855;29;20221;-63
2021/06/10 03:16:10;;;;;;;33.58;30.25;;;;;;;;;;2045421;29;20175;-64
2021/06/10 03:17:13;;;;;;;36.33;32.42;;;;;;;;;;2041148;29;20191;-62
2021/06/10 03:18:13;;;;;;;36.95;33.00;;;;;;;;;;2040684;29;20198;-63
2021/06/10 03:19:15;;;;;;;34.20;30.65;;;;;;;;;;2040603;29;20269;-63
2021/06/10 03:20:15;;;;;;;33.28;29.92;;;;;;;;;;2045349;29;20202;-62
2021/06/10 03:21:17;;;;;;;31.30;28.05;;;;;;;;;;2047016;28;20187;-61
2021/06/10 03:22:18;;;;;;;34.33;30.83;;;;;;;;;;2042372;29;20215;-62
2021/06/10 03:23:18;;;;;;;33.08;29.88;;;;;;;;;;2038699;29;20176;-62
2021/06/10 03:24:19;;;;;;;33.80;30.17;;;;;;;;;;2041089;29;20203;-62
2021/06/10 03:25:19;;;;;;;34.45;30.70;;;;;;;;;;2045286;29;20191;-62
2021/06/10 03:26:21;;;;;;;31.58;28.40;;;;;;;;;;2045600;29;20191;-64
2021/06/10 03:27:22;;;;;;;31.52;28.42;;;;;;;;;;2049298;28;20551;-64
2021/06/10 03:28:23;;;;;;;32.45;29.25;;;;;;;;;;2040354;29;20212;-63
2021/06/10 03:29:23;;;;;;;34.35;30.70;;;;;;;;;;2045290;29;20194;-64
2021/06/10 03:30:24;;;;;;;33.75;30.45;;;;;;;;;;2045778;29;20186;-63
2021/06/10 03:31:24;;;;;;;34.25;30.95;;;;;;;;;;2045988;29;20667;-63
2021/06/10 03:32:25;;;;;;;33.42;30.05;;;;;;;;;;2043439;29;20561;-62
2021/06/10 03:33:26;;;;;;;33.00;29.70;;;;;;;;;;2040617;29;20171;-63
2021/06/10 03:34:28;;;;;;;32.22;29.13;;;;;;;;;;2044340;29;20181;-62
2021/06/10 03:35:29;;;;;;;35.83;30.90;;;;;;;;;;2037027;29;20610;-63
2021/06/10 03:36:30;;;;;;;33.00;29.70;;;;;;;;;;2043712;29;20213;-63
2021/06/10 03:37:31;;;;;;;30.95;27.77;;;;;;;;;;2042029;29;20195;-64
2021/06/10 03:38:31;;;;;;;32.45;29.10;;;;;;;;;;2044925;29;20281;-64
2021/06/10 03:39:31;;;;;;;32.50;29.17;;;;;;;;;;2047628;29;20166;-63
2021/06/10 03:40:32;;;;;;;32.15;28.70;;;;;;;;;;2041367;29;20682;-63
2021/06/10 03:41:33;;;;;;;32.45;29.05;;;;;;;;;;2047612;29;20171;-62
2021/06/10 03:42:34;;;;;;;32.15;28.60;;;;;;;;;;2041012;28;20192;-61
2021/06/10 03:43:36;;;;;;;31.70;28.55;;;;;;;;;;2036223;29;20168;-62
2021/06/10 03:44:36;;;;;;;32.00;29.00;;;;;;;;;;2047117;29;20691;-62
2021/06/10 03:45:37;;;;;;;33.05;29.65;;;;;;;;;;2042048;29;20223;-64
2021/06/10 03:46:39;;;;;;;31.15;27.75;;;;;;;;;;2047745;29;20614;-63
2021/06/10 03:47:42;;;;;;;32.75;29.45;;;;;;;;;;2041375;29;20191;-64
2021/06/10 03:48:42;;;;;;;33.45;30.02;;;;;;;;;;2040136;29;20190;-64
2021/06/10 03:49:43;;;;;;;33.78;30.48;;;;;;;;;;2033642;29;20188;-62
2021/06/10 03:50:43;;;;;;;34.45;30.88;;;;;;;;;;2042677;29;20246;-62
2021/06/10 03:51:51;;;;;;;32.20;29.05;;;;;;;;;;2037270;28;20184;-62
2021/06/10 03:52:51;;;;;;;34.15;30.80;;;;;;;;;;2038110;29;20183;-61
2021/06/10 03:53:52;;;;;;;30.35;27.35;;;;;;;;;;2041713;29;20183;-62
2021/06/10 03:54:53;;;;;;;33.85;30.65;;;;;;;;;;2047524;29;20263;-63
2021/06/10 03:55:53;;;;;;;33.90;30.40;;;;;;;;;;2041674;29;20731;-62
2021/06/10 03:56:53;;;;;;;34.70;31.10;;;;;;;;;;2047084;29;20206;-62
2021/06/10 03:57:54;;;;;;;34.08;30.58;;;;;;;;;;2041082;29;20184;-62
2021/06/10 03:58:54;;;;;;;34.20;30.77;;;;;;;;;;2036785;29;20185;-62
2021/06/10 03:59:54;;;;;;;35.35;31.85;;;;;;;;;;2040791;29;20199;-62
2021/06/10 04:00:54;;;;;;;32.55;29.15;;;;;;;;;;2041276;29;20200;-62
2021/06/10 04:01:55;;;;;;;32.40;29.35;;;;;;;;;;2042534;29;20543;-63
2021/06/10 04:02:59;;;;;;;35.10;31.52;;;;;;;;;;2047371;29;20242;-63
2021/06/10 04:04:00;;;;;;;32.95;29.65;;;;;;;;;;2037858;29;20185;-62
2021/06/10 04:05:00;;;;;;;35.15;31.00;;;;;;;;;;2036173;28;20568;-62
2021/06/10 04:06:01;;;;;;;33.08;29.85;;;;;;;;;;2043687;29;20180;-62
2021/06/10 04:07:01;;;;;;;33.53;30.05;;;;;;;;;;2047181;29;20182;-63
2021/06/10 04:08:02;;;;;;;31.55;28.38;;;;;;;;;;2043031;29;20214;-63
2021/06/10 04:09:04;;;;;;;33.60;29.77;;;;;;;;;;2046114;28;20233;-63
2021/06/10 04:10:05;;;;;;;33.72;30.42;;;;;;;;;;2043785;29;20182;-63
2021/06/10 04:11:05;;;;;;;32.65;29.23;;;;;;;;;;2048123;28;20223;-61
2021/06/10 04:12:06;;;;;;;33.22;29.80;;;;;;;;;;2047100;29;20235;-63
2021/06/10 04:13:07;;;;;;;33.80;30.40;;;;;;;;;;2039481;29;20183;-63
2021/06/10 04:14:07;;;;;;;36.17;32.33;;;;;;;;;;2044353;29;20281;-63
2021/06/10 04:15:07;;;;;;;33.13;29.77;;;;;;;;;;2045184;29;20208;-64
2021/06/10 04:16:08;;;;;;;34.40;30.90;;;;;;;;;;2044310;29;20178;-62
2021/06/10 04:17:08;;;;;;;32.75;29.42;;;;;;;;;;2043499;29;20836;-62
2021/06/10 04:18:08;;;;;;;31.67;28.50;;;;;;;;;;2044331;29;20230;-63
2021/06/10 04:19:09;;;;;;;31.35;28.20;;;;;;;;;;2038881;29;20236;-63
2021/06/10 04:20:10;;;;;;;32.55;29.00;;;;;;;;;;2040010;29;20739;-63
2021/06/10 04:21:10;;;;;;;31.60;28.20;;;;;;;;;;2039478;29;20192;-62
2021/06/10 04:22:11;;;;;;;31.25;28.17;;;;;;;;;;2040637;29;20262;-63
2021/06/10 04:23:11;;;;;;;32.28;29.10;;;;;;;;;;2040088;29;20599;-63
2021/06/10 04:24:11;;;;;;;30.20;27.23;;;;;;;;;;2044723;29;20170;-63
2021/06/10 04:25:12;;;;;;;30.83;27.70;;;;;;;;;;2045046;28;20194;-63
2021/06/10 04:26:12;;;;;;;33.42;30.23;;;;;;;;;;2045381;29;20194;-63
2021/06/10 04:27:12;;;;;;;30.67;27.55;;;;;;;;;;2040457;29;20187;-63
2021/06/10 04:28:13;;;;;;;33.03;29.63;;;;;;;;;;2041433;29;20222;-62
2021/06/10 04:29:13;;;;;;;32.60;29.38;;;;;;;;;;2039805;29;20180;-63
2021/06/10 04:30:14;;;;;;;31.85;28.60;;;;;;;;;;2040303;29;20286;-63
2021/06/10 04:31:15;;;;;;;31.20;28.10;;;;;;;;;;2043266;29;20281;-62
2021/06/10 04:32:16;;;;;;;33.15;29.63;;;;;;;;;;2040740;29;20187;-63
2021/06/10 04:33:17;;;;;;;31.83;28.63;;;;;;;;;;2043938;29;20194;-63
2021/06/10 04:34:17;;;;;;;33.55;29.27;;;;;;;;;;2043945;29;20178;-63
2021/06/10 04:35:17;;;;;;;32.90;29.40;;;;;;;;;;2040549;29;20190;-63
2021/06/10 04:36:17;;;;;;;33.78;30.48;;;;;;;;;;2040880;29;20551;-63
2021/06/10 04:37:18;;;;;;;34.60;30.33;;;;;;;;;;2041034;29;20187;-63
2021/06/10 04:38:18;;;;;;;32.75;29.25;;;;;;;;;;2041134;29;20551;-63
2021/06/10 04:39:19;;;;;;;31.67;28.38;;;;;;;;;;2041049;29;20246;-63
2021/06/10 04:40:19;;;;;;;33.25;29.77;;;;;;;;;;2038284;29;20266;-63
2021/06/10 04:41:19;;;;;;;32.70;29.17;;;;;;;;;;2032107;29;20181;-62
2021/06/10 04:42:19;;;;;;;33.40;30.10;;;;;;;;;;2033260;29;20637;-63
2021/06/10 04:43:20;;;;;;;33.38;30.15;;;;;;;;;;2038342;29;20266;-63
2021/06/10 04:44:20;;;;;;;33.38;29.95;;;;;;;;;;2040872;29;20218;-63
2021/06/10 04:45:20;;;;;;;34.33;30.75;;;;;;;;;;2048346;29;20171;-63
2021/06/10 04:46:20;;;;;;;35.35;31.85;;;;;;;;;;2040449;29;20553;-63
2021/06/10 04:47:21;;;;;;;34.33;30.85;;;;;;;;;;2040695;29;20191;-63
2021/06/10 04:48:21;;;;;;;33.72;30.13;;;;;;;;;;2038316;29;20179;-63
2021/06/10 04:49:21;;;;;;;34.75;31.20;;;;;;;;;;2033383;29;20280;-63
2021/06/10 04:50:22;;;;;;;34.78;31.27;;;;;;;;;;2033004;29;20271;-63
2021/06/10 04:51:24;;;;;;;33.58;30.08;;;;;;;;;;2033212;29;20317;-62
2021/06/10 04:52:24;;;;;;;34.70;31.15;;;;;;;;;;2034912;29;20189;-62
2021/06/10 04:53:24;;;;;;;35.97;30.77;;;;;;;;;;2038775;29;20667;-62
2021/06/10 04:54:25;;;;;;;34.55;31.15;;;;;;;;;;2045299;29;20183;-63
2021/06/10 04:55:25;;;;;;;33.03;29.73;;;;;;;;;;2040812;29;20564;-62
2021/06/10 04:56:25;;;;;;;33.70;30.40;;;;;;;;;;2046004;29;20195;-63
2021/06/10 04:57:25;;;;;;;35.28;31.60;;;;;;;;;;2042600;29;20182;-63
2021/06/10 04:58:26;;;;;;;36.53;32.45;;;;;;;;;;2045428;29;20696;-64
2021/06/10 04:59:26;;;;;;;34.17;30.60;;;;;;;;;;2040139;29;20184;-61
2021/06/10 05:00:26;;;;;;;35.70;32.08;;;;;;;;;;2040384;29;20345;-62
2021/06/10 05:01:27;;;;;;;34.88;31.38;;;;;;;;;;2040293;29;20292;-61
2021/06/10 05:02:27;;;;;;;34.75;31.25;;;;;;;;;;2040552;29;20172;-63
2021/06/10 05:03:27;;;;;;;34.25;30.55;;;;;;;;;;2040763;29;20179;-63
2021/06/10 05:04:27;;;;;;;34.13;30.75;;;;;;;;;;2040516;29;20180;-61
2021/06/10 05:05:28;;;;;;;32.28;29.17;;;;;;;;;;2041266;29;20175;-62
2021/06/10 05:06:29;;;;;;;34.92;31.25;;;;;;;;;;2048338;29;20254;-62
2021/06/10 05:07:29;;;;;;;32.10;29.00;;;;;;;;;;2048258;29;20167;-63
2021/06/10 05:08:29;;;;;;;32.45;29.02;;;;;;;;;;2033462;29;20173;-62
2021/06/10 05:09:29;;;;;;;34.60;30.27;;;;;;;;;;2032855;29;20184;-62
2021/06/10 05:10:29;;;;;;;32.53;29.30;;;;;;;;;;2045079;28;20175;-63
2021/06/10 05:11:30;;;;;;;33.00;29.63;;;;;;;;;;2047372;29;20198;-62
2021/06/10 05:12:31;;;;;;;31.50;28.38;;;;;;;;;;2025549;29;20177;-62
2021/06/10 05:13:31;;;;;;;33.63;30.33;;;;;;;;;;2032861;29;20183;-63
2021/06/10 05:14:31;;;;;;;30.02;27.13;;;;;;;;;;2048018;29;20721;-62
2021/06/10 05:15:31;;;;;;;31.08;27.88;;;;;;;;;;2048630;28;20182;-63
2021/06/10 05:16:32;;;;;;;31.00;27.85;;;;;;;;;;2048217;29;20227;-64
2021/06/10 05:17:32;;;;;;;31.38;28.00;;;;;;;;;;2039300;29;20211;-63
2021/06/10 05:18:32;;;;;;;32.72;29.33;;;;;;;;;;2032687;29;20289;-61
2021/06/10 05:19:32;;;;;;;31.08;27.92;;;;;;;;;;2040361;29;20188;-60
2021/06/10 05:20:33;;;;;;;32.22;28.73;;;;;;;;;;2040358;29;20176;-62
2021/06/10 05:21:33;;;;;;;32.67;28.80;;;;;;;;;;2033282;29;20180;-62
2021/06/10 05:22:33;;;;;;;31.58;28.33;;;;;;;;;;2035665;29;20212;-61
2021/06/10 05:23:33;;;;;;;31.05;28.00;;;;;;;;;;2038504;29;20258;-62
2021/06/10 05:24:34;;;;;;;32.13;28.85;;;;;;;;;;2039425;29;20195;-62
2021/06/10 05:25:34;;;;;;;31.58;28.17;;;;;;;;;;2046871;29;20175;-62
2021/06/10 05:26:35;;;;;;;31.42;28.27;;;;;;;;;;2043459;29;20172;-62
2021/06/10 05:27:35;;;;;;;33.22;29.88;;;;;;;;;;2038763;29;20167;-62
2021/06/10 05:28:36;;;;;;;32.78;29.38;;;;;;;;;;2040018;29;20184;-63
2021/06/10 05:29:37;;;;;;;32.03;28.80;;;;;;;;;;2046471;29;20260;-63
2021/06/10 05:30:37;;;;;;;33.08;29.55;;;;;;;;;;2041040;29;20254;-62
2021/06/10 05:31:37;;;;;;;31.95;28.73;;;;;;;;;;2047513;29;20187;-62
2021/06/10 05:32:38;;;;;;;32.50;29.17;;;;;;;;;;2047885;29;20182;-64
2021/06/10 05:33:38;;;;;;;33.58;30.08;;;;;;;;;;2027440;29;20725;-62
2021/06/10 05:34:38;;;;;;;32.22;28.83;;;;;;;;;;2032637;29;20187;-63
2021/06/10 05:35:38;;;;;;;33.15;28.60;;;;;;;;;;2040917;29;20203;-62
2021/06/10 05:36:39;;;;;;;31.70;28.13;;;;;;;;;;2037555;29;20236;-63
2021/06/10 05:37:39;;;;;;;32.45;29.23;;;;;;;;;;2036011;29;20235;-63
2021/06/10 05:38:39;;;;;;;32.55;29.02;;;;;;;;;;2037771;29;20187;-62
2021/06/10 05:39:40;;;;;;;32.22;28.98;;;;;;;;;;2038231;29;20172;-63
2021/06/10 05:40:40;;;;;;;31.20;28.02;;;;;;;;;;2043343;29;20178;-63
2021/06/10 05:41:40;;;;;;;33.38;28.80;;;;;;;;;;2045424;29;20612;-63
2021/06/10 05:42:41;;;;;;;32.53;29.00;;;;;;;;;;2037459;29;20182;-65
2021/06/10 05:43:41;;;;;;;31.90;28.50;;;;;;;;;;2039216;29;20191;-63
2021/06/10 05:44:42;;;;;;;32.88;29.35;;;;;;;;;;2039550;29;20176;-63
2021/06/10 05:45:42;;;;;;;30.85;27.60;;;;;;;;;;2042501;29;20823;-63
2021/06/10 05:46:42;;;;;;;30.92;27.73;;;;;;;;;;2042025;29;20262;-64
2021/06/10 05:47:43;;;;;;;32.45;29.00;;;;;;;;;;2041603;29;20186;-65
2021/06/10 05:48:43;;;;;;;32.50;29.15;;;;;;;;;;2037382;29;20758;-63
2021/06/10 05:49:43;;;;;;;33.67;29.90;;;;;;;;;;2041202;29;20219;-65
2021/06/10 05:50:44;;;;;;;31.10;27.98;;;;;;;;;;2036961;29;20188;-64
2021/06/10 05:51:45;;;;;;;33.63;30.02;;;;;;;;;;2039512;29;20699;-65
2021/06/10 05:52:45;;;;;;;32.40;28.75;;;;;;;;;;2038070;29;20266;-63
2021/06/10 05:53:45;;;;;;;29.98;27.08;;;;;;;;;;2041483;29;20187;-63
2021/06/10 05:54:46;;;;;;;30.25;27.15;;;;;;;;;;2043396;29;20176;-64
2021/06/10 05:55:47;;;;;;;32.03;28.67;;;;;;;;;;2035679;29;20168;-65
2021/06/10 05:56:50;;;;;;;30.55;27.55;;;;;;;;;;2040653;29;20179;-65
2021/06/10 05:57:50;;;;;;;30.70;27.50;;;;;;;;;;2042790;29;20191;-65